createdAt,value
2016-03-13T00:00:25.433Z,1.58
2016-03-13T00:01:25.327Z,1.61
2016-03-13T00:02:25.220Z,1.62
2016-03-13T00:03:25.347Z,1.55
2016-03-13T00:04:25.257Z,1.54
2016-03-13T00:05:25.306Z,1.62
2016-03-13T00:06:25.574Z,1.65
2016-03-13T00:07:21.108Z,1.73
2016-03-13T00:08:21.064Z,1.71
2016-03-13T00:09:21.036Z,1.76
2016-03-13T00:10:20.991Z,1.75
2016-03-13T00:11:20.948Z,1.85
2016-03-13T00:12:20.919Z,1.87
2016-03-13T00:13:20.891Z,1.87
2016-03-13T00:14:20.846Z,1.9
2016-03-13T00:15:20.833Z,1.91
2016-03-13T00:16:20.789Z,1.91
2016-03-13T00:17:20.760Z,1.91
2016-03-13T00:18:20.717Z,2.04
2016-03-13T00:19:20.688Z,2.02
2016-03-13T00:20:20.659Z,1.99
2016-03-13T00:21:20.615Z,2.01
2016-03-13T00:22:20.586Z,2.13
2016-03-13T00:23:20.542Z,2.06
2016-03-13T00:24:20.498Z,2.16
2016-03-13T00:25:20.469Z,2.15
2016-03-13T00:26:20.441Z,2.19
2016-03-13T00:27:20.241Z,2.19
2016-03-13T00:28:20.383Z,2.23
2016-03-13T00:29:20.339Z,2.19
2016-03-13T00:30:20.311Z,2.2
2016-03-13T00:31:20.267Z,2.28
2016-03-13T00:32:20.239Z,2.34
2016-03-13T00:33:20.225Z,2.46
2016-03-13T00:34:20.166Z,2.48
2016-03-13T00:35:20.137Z,2.44
2016-03-13T00:36:20.093Z,2.45
2016-03-13T00:37:20.063Z,2.38
2016-03-13T00:38:20.036Z,2.37
2016-03-13T00:39:20.012Z,2.48
2016-03-13T00:40:19.984Z,2.52
2016-03-13T00:41:19.924Z,2.49
2016-03-13T00:42:19.895Z,2.59
2016-03-13T00:43:19.851Z,2.56
2016-03-13T00:44:19.823Z,2.58
2016-03-13T00:45:19.793Z,2.61
2016-03-13T00:46:19.781Z,2.64
2016-03-13T00:47:19.720Z,2.63
2016-03-13T00:48:19.677Z,2.67
2016-03-13T00:49:19.648Z,2.69
2016-03-13T00:50:19.620Z,2.67
2016-03-13T00:51:19.592Z,2.73
2016-03-13T00:52:19.547Z,2.71
2016-03-13T00:53:19.519Z,2.71
2016-03-13T00:54:19.474Z,2.71
2016-03-13T00:55:19.445Z,2.74
2016-03-13T00:56:19.417Z,2.69
2016-03-13T00:57:19.372Z,2.71
2016-03-13T00:58:19.360Z,2.71
2016-03-13T00:59:19.316Z,2.74
2016-03-13T01:00:19.272Z,2.73
2016-03-13T01:01:19.244Z,2.77
2016-03-13T01:02:19.214Z,2.73
2016-03-13T01:03:19.171Z,2.76
2016-03-13T01:04:19.141Z,2.82
2016-03-13T01:05:19.113Z,2.73
2016-03-13T01:06:19.068Z,2.73
2016-03-13T01:07:19.025Z,2.7
2016-03-13T01:08:18.996Z,2.87
2016-03-13T01:09:18.968Z,2.85
2016-03-13T01:10:18.924Z,2.85
2016-03-13T01:11:18.911Z,2.81
2016-03-13T01:12:18.866Z,2.88
2016-03-13T01:13:22.540Z,2.85
2016-03-13T01:14:18.825Z,2.89
2016-03-13T01:15:18.765Z,2.82
2016-03-13T01:16:18.736Z,2.87
2016-03-13T01:17:18.692Z,2.88
2016-03-13T01:18:18.665Z,2.85
2016-03-13T01:19:18.635Z,2.92
2016-03-13T01:20:18.592Z,2.87
2016-03-13T01:21:18.562Z,2.88
2016-03-13T01:22:18.518Z,2.92
2016-03-13T01:23:18.489Z,2.95
2016-03-13T01:24:18.461Z,2.91
2016-03-13T01:25:18.432Z,2.92
2016-03-13T01:26:18.389Z,2.87
2016-03-13T01:27:18.360Z,2.88
2016-03-13T01:28:18.331Z,2.95
2016-03-13T01:29:18.287Z,2.85
2016-03-13T01:30:18.258Z,2.81
2016-03-13T01:31:18.230Z,2.91
2016-03-13T01:32:18.202Z,2.92
2016-03-13T01:33:18.157Z,2.85
2016-03-13T01:34:18.129Z,2.91
2016-03-13T01:35:18.099Z,2.89
2016-03-13T01:36:18.071Z,2.97
2016-03-13T01:37:18.044Z,2.84
2016-03-13T01:38:17.999Z,2.87
2016-03-13T01:39:17.955Z,2.95
2016-03-13T01:40:17.926Z,2.88
2016-03-13T01:41:17.898Z,2.87
2016-03-13T01:42:17.853Z,2.92
2016-03-13T01:43:17.824Z,2.85
2016-03-13T01:44:17.781Z,2.88
2016-03-13T01:45:17.768Z,2.85
2016-03-13T01:46:17.724Z,2.84
2016-03-13T01:47:17.695Z,2.88
2016-03-13T01:48:17.667Z,2.81
2016-03-13T01:49:17.638Z,2.85
2016-03-13T01:50:17.593Z,2.82
2016-03-13T01:51:17.565Z,2.84
2016-03-13T01:52:17.536Z,2.81
2016-03-13T01:53:17.492Z,2.89
2016-03-13T01:54:17.464Z,2.92
2016-03-13T01:55:17.419Z,2.91
2016-03-13T01:56:17.392Z,2.89
2016-03-13T01:57:17.347Z,2.87
2016-03-13T01:58:17.334Z,2.84
2016-03-13T01:59:17.289Z,2.91
2016-03-13T02:00:17.261Z,2.91
2016-03-13T02:01:17.217Z,2.84
2016-03-13T02:02:17.172Z,2.89
2016-03-13T02:03:17.160Z,2.95
2016-03-13T02:04:17.116Z,2.85
2016-03-13T02:05:17.088Z,2.85
2016-03-13T02:06:17.043Z,2.89
2016-03-13T02:07:17.030Z,2.88
2016-03-13T02:08:16.986Z,2.92
2016-03-13T02:09:16.973Z,2.91
2016-03-13T02:10:16.913Z,2.87
2016-03-13T02:11:16.900Z,2.84
2016-03-13T02:12:16.856Z,2.87
2016-03-13T02:13:16.843Z,2.88
2016-03-13T02:14:16.782Z,2.89
2016-03-13T02:15:16.755Z,2.91
2016-03-13T02:16:16.726Z,2.94
2016-03-13T02:17:16.682Z,2.84
2016-03-13T02:18:16.654Z,2.97
2016-03-13T02:19:16.609Z,2.94
2016-03-13T02:20:16.596Z,2.92
2016-03-13T02:21:16.537Z,2.97
2016-03-13T02:22:16.539Z,2.97
2016-03-13T02:23:16.479Z,3.02
2016-03-13T02:24:16.450Z,3.03
2016-03-13T02:25:16.406Z,2.97
2016-03-13T02:26:16.394Z,2.94
2016-03-13T02:27:16.350Z,3
2016-03-13T02:28:16.321Z,2.89
2016-03-13T02:29:16.277Z,2.94
2016-03-13T02:30:16.248Z,2.92
2016-03-13T02:31:16.203Z,2.85
2016-03-13T02:32:16.191Z,2.85
2016-03-13T02:33:16.146Z,3.02
2016-03-13T02:34:16.119Z,2.97
2016-03-13T02:35:16.090Z,3.03
2016-03-13T02:36:16.045Z,2.97
2016-03-13T02:37:16.002Z,2.87
2016-03-13T02:38:15.989Z,2.87
2016-03-13T02:39:15.929Z,2.87
2016-03-13T02:40:15.916Z,2.91
2016-03-13T02:41:15.871Z,2.85
2016-03-13T02:42:15.843Z,2.97
2016-03-13T02:43:15.815Z,3
2016-03-13T02:44:15.771Z,3.03
2016-03-13T02:45:15.741Z,2.95
2016-03-13T02:46:15.713Z,2.97
2016-03-13T02:47:15.668Z,2.98
2016-03-13T02:48:15.671Z,2.95
2016-03-13T02:49:15.627Z,2.98
2016-03-13T02:50:15.583Z,2.97
2016-03-13T02:51:15.523Z,3.02
2016-03-13T02:52:15.510Z,2.98
2016-03-13T02:53:15.481Z,3.03
2016-03-13T02:54:15.484Z,3.1
2016-03-13T02:55:15.393Z,3.02
2016-03-13T02:56:15.381Z,2.97
2016-03-13T02:57:15.368Z,3.03
2016-03-13T02:58:15.323Z,3.12
2016-03-13T02:59:15.264Z,3.05
2016-03-13T03:00:15.236Z,3.02
2016-03-13T03:01:15.207Z,2.97
2016-03-13T03:02:15.162Z,3.02
2016-03-13T03:03:15.165Z,3.02
2016-03-13T03:04:15.106Z,3.03
2016-03-13T03:05:15.077Z,3.02
2016-03-13T03:06:15.033Z,3.02
2016-03-13T03:07:15.004Z,3
2016-03-13T03:08:14.960Z,3.03
2016-03-13T03:09:14.947Z,3.06
2016-03-13T03:10:14.918Z,3.1
2016-03-13T03:11:14.858Z,3.07
2016-03-13T03:12:14.721Z,3.12
2016-03-13T03:13:14.832Z,3.03
2016-03-13T03:14:14.757Z,3.06
2016-03-13T03:15:14.744Z,3.09
2016-03-13T03:16:14.699Z,3.03
2016-03-13T03:17:14.671Z,3.15
2016-03-13T03:18:14.626Z,3.16
2016-03-13T03:19:14.598Z,3.15
2016-03-13T03:20:14.554Z,3.1
2016-03-13T03:21:14.526Z,3.13
2016-03-13T03:22:14.497Z,3.15
2016-03-13T03:23:14.328Z,3.07
2016-03-13T03:24:14.440Z,3.13
2016-03-13T03:25:14.411Z,3.13
2016-03-13T03:26:14.367Z,3.15
2016-03-13T03:27:14.370Z,3.16
2016-03-13T03:28:14.294Z,3.13
2016-03-13T03:29:14.267Z,3.13
2016-03-13T03:30:14.222Z,3.12
2016-03-13T03:31:14.194Z,3.16
2016-03-13T03:32:14.165Z,3.15
2016-03-13T03:33:14.136Z,3.12
2016-03-13T03:34:14.092Z,3.13
2016-03-13T03:35:14.064Z,3.05
2016-03-13T03:36:14.035Z,3.13
2016-03-13T03:37:13.991Z,3.09
2016-03-13T03:38:13.963Z,3.02
2016-03-13T03:39:13.934Z,3.09
2016-03-13T03:40:13.889Z,3.05
2016-03-13T03:41:13.861Z,3.1
2016-03-13T03:42:13.832Z,3.12
2016-03-13T03:43:13.788Z,3.1
2016-03-13T03:44:13.760Z,3.09
2016-03-13T03:45:13.731Z,3.03
2016-03-13T03:46:13.702Z,3.09
2016-03-13T03:47:13.658Z,3.07
2016-03-13T03:48:13.629Z,3.03
2016-03-13T03:49:13.601Z,3.18
2016-03-13T03:50:13.573Z,3.1
2016-03-13T03:51:13.528Z,3.07
2016-03-13T03:52:13.500Z,3.2
2016-03-13T03:53:13.470Z,3.13
2016-03-13T03:54:13.426Z,3.1
2016-03-13T03:55:13.398Z,3.16
2016-03-13T03:56:13.370Z,3.12
2016-03-13T03:57:13.325Z,3.12
2016-03-13T03:58:13.281Z,3.2
2016-03-13T03:59:13.253Z,3.15
2016-03-13T04:00:13.224Z,3.18
2016-03-13T04:01:13.180Z,3.16
2016-03-13T04:02:13.167Z,3.2
2016-03-13T04:03:13.123Z,3.16
2016-03-13T04:04:13.095Z,3.23
2016-03-13T04:05:13.066Z,3.18
2016-03-13T04:06:13.038Z,3.18
2016-03-13T04:07:12.978Z,3.24
2016-03-13T04:08:12.949Z,3.23
2016-03-13T04:09:12.921Z,3.2
2016-03-13T04:10:12.892Z,3.23
2016-03-13T04:11:12.847Z,3.21
2016-03-13T04:12:12.819Z,3.2
2016-03-13T04:13:12.791Z,3.24
2016-03-13T04:14:12.762Z,3.23
2016-03-13T04:15:12.718Z,3.23
2016-03-13T04:16:12.690Z,3.24
2016-03-13T04:17:12.660Z,3.21
2016-03-13T04:18:12.616Z,3.18
2016-03-13T04:19:12.588Z,3.21
2016-03-13T04:20:12.543Z,3.2
2016-03-13T04:21:12.515Z,3.21
2016-03-13T04:22:12.487Z,3.18
2016-03-13T04:23:12.442Z,3.25
2016-03-13T04:24:12.429Z,3.23
2016-03-13T04:25:12.385Z,3.23
2016-03-13T04:26:12.356Z,3.25
2016-03-13T04:27:12.329Z,3.27
2016-03-13T04:28:12.300Z,3.2
2016-03-13T04:29:12.256Z,3.18
2016-03-13T04:30:12.243Z,3.28
2016-03-13T04:31:12.183Z,3.25
2016-03-13T04:32:11.998Z,3.23
2016-03-13T04:33:12.126Z,3.21
2016-03-13T04:34:12.082Z,3.25
2016-03-13T04:35:12.053Z,3.25
2016-03-13T04:36:12.025Z,3.21
2016-03-13T04:37:11.997Z,3.25
2016-03-13T04:38:11.952Z,3.24
2016-03-13T04:39:11.923Z,3.24
2016-03-13T04:40:11.894Z,3.34
2016-03-13T04:41:11.850Z,3.28
2016-03-13T04:42:11.822Z,3.23
2016-03-13T04:43:11.793Z,3.23
2016-03-13T04:44:11.749Z,3.23
2016-03-13T04:45:11.736Z,3.23
2016-03-13T04:46:11.691Z,3.24
2016-03-13T04:47:11.663Z,3.3
2016-03-13T04:48:11.619Z,3.24
2016-03-13T04:49:11.590Z,3.18
2016-03-13T04:50:11.562Z,3.31
2016-03-13T04:51:11.517Z,3.28
2016-03-13T04:52:11.489Z,3.28
2016-03-13T04:53:11.460Z,3.28
2016-03-13T04:54:11.432Z,3.25
2016-03-13T04:55:11.403Z,3.23
2016-03-13T04:56:11.359Z,3.2
2016-03-13T04:57:11.331Z,3.28
2016-03-13T04:58:11.286Z,3.21
2016-03-13T04:59:11.242Z,3.21
2016-03-13T05:00:11.214Z,3.3
2016-03-13T05:01:11.186Z,3.27
2016-03-13T05:02:11.157Z,3.2
2016-03-13T05:03:11.128Z,3.24
2016-03-13T05:04:11.084Z,3.2
2016-03-13T05:05:11.056Z,3.24
2016-03-13T05:06:11.027Z,3.24
2016-03-13T05:07:10.998Z,3.27
2016-03-13T05:08:10.955Z,3.28
2016-03-13T05:09:10.925Z,3.24
2016-03-13T05:10:10.881Z,3.3
2016-03-13T05:11:10.853Z,3.28
2016-03-13T05:12:10.668Z,3.23
2016-03-13T05:13:10.780Z,3.28
2016-03-13T05:14:10.736Z,3.34
2016-03-13T05:15:10.707Z,3.25
2016-03-13T05:16:10.694Z,3.28
2016-03-13T05:17:10.650Z,3.3
2016-03-13T05:18:10.621Z,3.21
2016-03-13T05:19:10.577Z,3.24
2016-03-13T05:20:10.549Z,3.28
2016-03-13T05:21:10.520Z,3.25
2016-03-13T05:22:10.492Z,3.23
2016-03-13T05:23:10.448Z,3.23
2016-03-13T05:24:10.418Z,3.28
2016-03-13T05:25:10.390Z,3.21
2016-03-13T05:26:10.345Z,3.3
2016-03-13T05:27:10.317Z,3.21
2016-03-13T05:28:10.273Z,3.28
2016-03-13T05:29:10.244Z,3.33
2016-03-13T05:30:10.216Z,3.3
2016-03-13T05:31:10.172Z,3.23
2016-03-13T05:32:10.159Z,3.24
2016-03-13T05:33:10.114Z,3.25
2016-03-13T05:34:10.086Z,3.23
2016-03-13T05:35:10.042Z,3.23
2016-03-13T05:36:10.014Z,3.31
2016-03-13T05:37:09.970Z,3.24
2016-03-13T05:38:09.941Z,3.27
2016-03-13T05:39:09.897Z,3.25
2016-03-13T05:40:09.884Z,3.34
2016-03-13T05:41:09.839Z,3.3
2016-03-13T05:42:09.811Z,3.33
2016-03-13T05:43:09.780Z,3.31
2016-03-13T05:44:09.736Z,3.28
2016-03-13T05:45:09.707Z,3.24
2016-03-13T05:46:11.901Z,3.2
2016-03-13T05:47:09.667Z,3.23
2016-03-13T05:48:09.591Z,3.2
2016-03-13T05:49:12.193Z,3.12
2016-03-13T05:50:09.521Z,3.09
2016-03-13T05:51:09.539Z,3
2016-03-13T05:52:09.464Z,3
2016-03-13T05:53:09.435Z,2.98
2016-03-13T05:54:09.391Z,2.87
2016-03-13T05:55:09.363Z,2.77
2016-03-13T05:56:09.335Z,2.82
2016-03-13T05:57:09.305Z,2.92
2016-03-13T05:58:09.261Z,2.84
2016-03-13T05:59:09.238Z,2.84
2016-03-13T06:00:09.193Z,2.74
2016-03-13T06:01:09.149Z,2.76
2016-03-13T06:02:09.121Z,2.73
2016-03-13T06:03:09.092Z,2.74
2016-03-13T06:04:09.064Z,2.71
2016-03-13T06:05:09.035Z,2.7
2016-03-13T06:06:09.006Z,2.76
2016-03-13T06:07:08.959Z,2.74
2016-03-13T06:08:08.931Z,2.73
2016-03-13T06:09:08.918Z,2.74
2016-03-13T06:10:08.874Z,2.74
2016-03-13T06:11:08.830Z,2.79
2016-03-13T06:12:08.801Z,2.76
2016-03-13T06:13:08.757Z,2.84
2016-03-13T06:14:08.714Z,2.79
2016-03-13T06:15:08.731Z,2.84
2016-03-13T06:16:08.656Z,2.87
2016-03-13T06:17:08.628Z,2.85
2016-03-13T06:18:08.583Z,2.85
2016-03-13T06:19:08.555Z,2.81
2016-03-13T06:20:08.526Z,2.92
2016-03-13T06:21:08.482Z,2.89
2016-03-13T06:22:08.453Z,2.85
2016-03-13T06:23:08.424Z,2.91
2016-03-13T06:24:08.380Z,2.97
2016-03-13T06:25:08.352Z,2.97
2016-03-13T06:26:08.323Z,3.1
2016-03-13T06:27:08.279Z,3.1
2016-03-13T06:28:08.266Z,3.15
2016-03-13T06:29:08.221Z,3.16
2016-03-13T06:30:08.177Z,3.12
2016-03-13T06:31:08.149Z,3.1
2016-03-13T06:32:08.120Z,3.16
2016-03-13T06:33:08.076Z,3.24
2016-03-13T06:34:08.048Z,3.24
2016-03-13T06:35:08.019Z,3.23
2016-03-13T06:36:07.990Z,3.28
2016-03-13T06:37:07.946Z,3.24
2016-03-13T06:38:07.933Z,3.28
2016-03-13T06:39:07.889Z,3.34
2016-03-13T06:40:07.861Z,3.27
2016-03-13T06:41:07.816Z,3.31
2016-03-13T06:42:07.789Z,3.33
2016-03-13T06:43:07.634Z,3.33
2016-03-13T06:44:07.747Z,3.33
2016-03-13T06:45:07.687Z,3.31
2016-03-13T06:46:07.658Z,3.3
2016-03-13T06:47:07.614Z,3.39
2016-03-13T06:48:08.820Z,3.34
2016-03-13T06:49:11.356Z,3.49
2016-03-13T06:50:07.528Z,3.47
2016-03-13T06:51:07.499Z,3.44
2016-03-13T06:52:07.455Z,3.49
2016-03-13T06:53:07.427Z,3.57
2016-03-13T06:54:07.399Z,3.58
2016-03-13T06:55:07.354Z,3.61
2016-03-13T06:56:07.326Z,3.6
2016-03-13T06:57:07.297Z,3.64
2016-03-13T06:58:07.299Z,3.58
2016-03-13T06:59:07.240Z,3.78
2016-03-13T07:00:07.196Z,3.72
2016-03-13T07:01:07.183Z,3.8
2016-03-13T07:02:10.829Z,3.75
2016-03-13T07:03:07.095Z,3.72
2016-03-13T07:04:07.066Z,3.82
2016-03-13T07:05:07.022Z,3.8
2016-03-13T07:06:07.009Z,3.82
2016-03-13T07:07:06.965Z,3.88
2016-03-13T07:08:06.921Z,3.96
2016-03-13T07:09:06.892Z,3.9
2016-03-13T07:10:06.864Z,4.03
2016-03-13T07:11:06.850Z,3.94
2016-03-13T07:12:06.790Z,4.07
2016-03-13T07:13:06.793Z,3.97
2016-03-13T07:14:06.734Z,4.1
2016-03-13T07:15:06.720Z,4.07
2016-03-13T07:16:06.661Z,4.06
2016-03-13T07:17:06.648Z,4.07
2016-03-13T07:18:06.603Z,4.1
2016-03-13T07:19:06.575Z,4.12
2016-03-13T07:20:06.530Z,4.15
2016-03-13T07:21:06.502Z,4.25
2016-03-13T07:22:06.489Z,4.24
2016-03-13T07:23:06.429Z,4.33
2016-03-13T07:24:06.432Z,4.44
2016-03-13T07:25:06.388Z,4.54
2016-03-13T07:26:06.359Z,4.65
2016-03-13T07:27:06.331Z,4.58
2016-03-13T07:28:06.287Z,4.69
2016-03-13T07:29:06.258Z,4.7
2016-03-13T07:30:06.230Z,4.8
2016-03-13T07:31:06.201Z,4.83
2016-03-13T07:32:06.173Z,4.86
2016-03-13T07:33:06.113Z,4.77
2016-03-13T07:34:06.100Z,4.83
2016-03-13T07:35:06.056Z,4.73
2016-03-13T07:36:06.027Z,4.88
2016-03-13T07:37:05.998Z,4.73
2016-03-13T07:38:05.954Z,4.73
2016-03-13T07:39:05.957Z,4.76
2016-03-13T07:40:05.897Z,4.86
2016-03-13T07:41:05.868Z,4.76
2016-03-13T07:42:05.840Z,4.69
2016-03-13T07:43:05.811Z,4.75
2016-03-13T07:44:05.767Z,4.86
2016-03-13T07:45:05.753Z,4.73
2016-03-13T07:46:05.710Z,4.64
2016-03-13T07:47:05.681Z,4.65
2016-03-13T07:48:05.636Z,4.76
2016-03-13T07:49:05.639Z,4.72
2016-03-13T07:50:05.580Z,4.75
2016-03-13T07:51:05.552Z,4.79
2016-03-13T07:52:05.570Z,4.73
2016-03-13T07:53:05.480Z,4.86
2016-03-13T07:54:05.466Z,4.73
2016-03-13T07:55:05.422Z,4.73
2016-03-13T07:56:05.409Z,4.77
2016-03-13T07:57:05.365Z,4.8
2016-03-13T07:58:05.336Z,4.8
2016-03-13T07:59:05.307Z,4.92
2016-03-13T08:00:05.279Z,4.88
2016-03-13T08:01:05.235Z,4.98
2016-03-13T08:02:05.221Z,4.98
2016-03-13T08:03:05.177Z,4.96
2016-03-13T08:04:05.165Z,4.95
2016-03-13T08:05:05.105Z,4.94
2016-03-13T08:06:05.093Z,5.07
2016-03-13T08:07:05.048Z,5.04
2016-03-13T08:08:05.035Z,4.99
2016-03-13T08:09:04.990Z,5.09
2016-03-13T08:10:04.962Z,4.99
2016-03-13T08:11:04.918Z,4.99
2016-03-13T08:12:04.889Z,5.19
2016-03-13T08:13:04.876Z,5.17
2016-03-13T08:14:04.848Z,5.04
2016-03-13T08:15:04.789Z,5.1
2016-03-13T08:16:04.759Z,5.04
2016-03-13T08:17:04.731Z,5.1
2016-03-13T08:18:04.703Z,5.1
2016-03-13T08:19:04.674Z,5.1
2016-03-13T08:20:04.661Z,5.16
2016-03-13T08:21:04.633Z,5.27
2016-03-13T08:22:04.588Z,5.13
2016-03-13T08:23:04.560Z,5.27
2016-03-13T08:24:04.515Z,5.28
2016-03-13T08:25:04.518Z,5.32
2016-03-13T08:26:04.443Z,5.45
2016-03-13T08:27:04.429Z,5.46
2016-03-13T08:28:04.761Z,5.48
2016-03-13T08:29:04.357Z,5.55
2016-03-13T08:30:04.329Z,5.6
2016-03-13T08:31:04.316Z,5.6
2016-03-13T08:32:04.271Z,5.5
2016-03-13T08:33:04.227Z,5.56
2016-03-13T08:34:04.229Z,5.53
2016-03-13T08:35:04.170Z,5.49
2016-03-13T08:36:04.172Z,5.37
2016-03-13T08:37:04.099Z,5.56
2016-03-13T08:38:04.087Z,5.53
2016-03-13T08:39:04.015Z,5.45
2016-03-13T08:40:03.971Z,5.48
2016-03-13T08:41:03.929Z,5.41
2016-03-13T08:42:03.896Z,5.38
2016-03-13T08:43:03.878Z,5.41
2016-03-13T08:44:03.828Z,5.38
2016-03-13T08:45:03.784Z,5.35
2016-03-13T08:46:03.751Z,5.22
2016-03-13T08:47:03.705Z,5.31
2016-03-13T08:48:03.706Z,5.31
2016-03-13T08:49:03.644Z,5.35
2016-03-13T08:50:03.629Z,5.32
2016-03-13T08:51:03.583Z,5.22
2016-03-13T08:52:03.554Z,5.38
2016-03-13T08:53:03.508Z,5.32
2016-03-13T08:54:03.496Z,5.41
2016-03-13T08:55:03.465Z,5.46
2016-03-13T08:56:03.280Z,5.43
2016-03-13T08:57:03.391Z,5.37
2016-03-13T08:58:03.346Z,5.38
2016-03-13T08:59:03.334Z,5.32
2016-03-13T09:00:03.305Z,5.32
2016-03-13T09:01:03.276Z,5.2
2016-03-13T09:02:03.231Z,5.32
2016-03-13T09:03:03.219Z,5.2
2016-03-13T09:04:03.175Z,5.17
2016-03-13T09:05:03.147Z,5.16
2016-03-13T09:06:03.118Z,5.19
2016-03-13T09:07:03.078Z,5.27
2016-03-13T09:08:03.052Z,5.28
2016-03-13T09:09:03.023Z,5.25
2016-03-13T09:10:02.995Z,5.35
2016-03-13T09:11:02.951Z,5.34
2016-03-13T09:12:02.921Z,5.35
2016-03-13T09:13:02.893Z,5.37
2016-03-13T09:14:02.865Z,5.4
2016-03-13T09:15:02.820Z,5.35
2016-03-13T09:16:02.792Z,5.34
2016-03-13T09:17:02.795Z,5.52
2016-03-13T09:18:02.735Z,5.53
2016-03-13T09:19:02.722Z,5.37
2016-03-13T09:20:02.678Z,5.3
2016-03-13T09:21:02.508Z,5.34
2016-03-13T09:22:02.621Z,5.22
2016-03-13T09:23:02.608Z,5.27
2016-03-13T09:24:02.548Z,5.19
2016-03-13T09:25:02.535Z,5.27
2016-03-13T09:26:02.491Z,5.17
2016-03-13T09:27:02.477Z,5.2
2016-03-13T09:28:02.433Z,5.28
2016-03-13T09:29:02.405Z,5.25
2016-03-13T09:30:02.392Z,5.2
2016-03-13T09:31:02.348Z,5.31
2016-03-13T09:32:02.319Z,5.25
2016-03-13T09:33:02.275Z,5.32
2016-03-13T09:34:02.247Z,5.4
2016-03-13T09:35:02.218Z,5.4
2016-03-13T09:36:02.190Z,5.4
2016-03-13T09:37:02.146Z,5.38
2016-03-13T09:38:02.116Z,5.45
2016-03-13T09:39:02.088Z,5.3
2016-03-13T09:40:02.060Z,5.35
2016-03-13T09:41:02.032Z,5.31
2016-03-13T09:42:02.002Z,5.37
2016-03-13T09:43:02.021Z,5.27
2016-03-13T09:44:01.946Z,5.35
2016-03-13T09:45:01.901Z,5.45
2016-03-13T09:46:01.873Z,5.41
2016-03-13T09:47:01.860Z,5.5
2016-03-13T09:48:01.801Z,5.55
2016-03-13T09:49:01.787Z,5.67
2016-03-13T09:50:01.774Z,5.64
2016-03-13T09:51:01.573Z,5.63
2016-03-13T09:52:01.686Z,5.49
2016-03-13T09:53:01.672Z,5.55
2016-03-13T09:54:01.629Z,5.52
2016-03-13T09:55:01.600Z,5.64
2016-03-13T09:56:01.572Z,5.66
2016-03-13T09:57:01.543Z,5.59
2016-03-13T09:58:01.499Z,5.59
2016-03-13T09:59:01.470Z,5.5
2016-03-13T10:00:01.442Z,5.48
2016-03-13T10:01:01.413Z,5.53
2016-03-13T10:02:01.400Z,5.41
2016-03-13T10:03:01.355Z,5.4
2016-03-13T10:04:01.327Z,5.38
2016-03-13T10:05:01.283Z,5.53
2016-03-13T10:06:01.271Z,5.41
2016-03-13T10:07:01.227Z,5.32
2016-03-13T10:08:01.213Z,5.37
2016-03-13T10:09:01.169Z,5.4
2016-03-13T10:10:01.140Z,5.45
2016-03-13T10:11:01.112Z,5.38
2016-03-13T10:12:01.099Z,5.45
2016-03-13T10:13:01.055Z,5.53
2016-03-13T10:14:01.010Z,5.5
2016-03-13T10:15:00.998Z,5.55
2016-03-13T10:16:00.954Z,5.68
2016-03-13T10:17:00.956Z,5.73
2016-03-13T10:18:00.881Z,5.71
2016-03-13T10:19:00.883Z,5.77
2016-03-13T10:20:00.823Z,5.81
2016-03-13T10:21:00.811Z,5.75
2016-03-13T10:22:00.766Z,5.75
2016-03-13T10:23:00.769Z,5.77
2016-03-13T10:24:00.709Z,5.86
2016-03-13T10:25:00.697Z,5.93
2016-03-13T10:26:00.653Z,6
2016-03-13T10:27:00.639Z,5.82
2016-03-13T10:28:00.595Z,5.89
2016-03-13T10:29:00.566Z,5.89
2016-03-13T10:30:00.538Z,5.85
2016-03-13T10:31:00.509Z,5.83
2016-03-13T10:32:00.480Z,5.92
2016-03-13T10:33:00.436Z,5.78
2016-03-13T10:34:00.408Z,5.71
2016-03-13T10:35:00.380Z,5.85
2016-03-13T10:36:00.351Z,5.85
2016-03-13T10:37:00.338Z,5.88
2016-03-13T10:38:00.293Z,6
2016-03-13T10:39:00.265Z,5.88
2016-03-13T10:40:00.237Z,5.92
2016-03-13T10:41:00.208Z,5.98
2016-03-13T10:42:00.164Z,6.03
2016-03-13T10:43:00.151Z,6.01
2016-03-13T10:44:00.123Z,6.1
2016-03-13T10:45:00.079Z,6.28
2016-03-13T10:46:00.065Z,6.35
2016-03-13T10:47:00.037Z,6.32
2016-03-13T10:47:59.993Z,6.44
2016-03-13T10:48:59.964Z,6.46
2016-03-13T10:49:59.935Z,6.43
2016-03-13T10:50:59.906Z,6.5
2016-03-13T10:51:59.878Z,6.4
2016-03-13T10:52:59.834Z,6.33
2016-03-13T10:53:59.837Z,6.35
2016-03-13T10:54:59.778Z,6.36
2016-03-13T10:55:59.764Z,6.32
2016-03-13T10:56:59.720Z,6.28
2016-03-13T10:57:59.707Z,6.13
2016-03-13T10:58:59.664Z,6.19
2016-03-13T10:59:59.650Z,6.26
2016-03-13T11:00:59.605Z,6.3
2016-03-13T11:01:59.592Z,6.41
2016-03-13T11:02:59.533Z,6.51
2016-03-13T11:03:59.536Z,6.62
2016-03-13T11:04:59.475Z,6.69
2016-03-13T11:05:59.463Z,6.73
2016-03-13T11:06:59.419Z,6.79
2016-03-13T11:07:59.405Z,6.89
2016-03-13T11:08:59.361Z,6.87
2016-03-13T11:09:59.333Z,6.91
2016-03-13T11:10:59.304Z,6.87
2016-03-13T11:11:59.276Z,6.86
2016-03-13T11:12:59.263Z,6.83
2016-03-13T11:13:59.234Z,6.71
2016-03-13T11:14:59.206Z,6.63
2016-03-13T11:15:59.176Z,6.73
2016-03-13T11:16:59.148Z,6.63
2016-03-13T11:17:59.104Z,6.56
2016-03-13T11:18:59.092Z,6.58
2016-03-13T11:19:59.032Z,6.38
2016-03-13T11:20:59.019Z,6.58
2016-03-13T11:21:58.990Z,6.63
2016-03-13T11:22:58.962Z,6.58
2016-03-13T11:23:58.917Z,6.66
2016-03-13T11:24:58.904Z,6.81
2016-03-13T11:25:58.861Z,6.69
2016-03-13T11:26:58.847Z,6.71
2016-03-13T11:27:58.803Z,6.69
2016-03-13T11:28:58.822Z,6.79
2016-03-13T11:29:58.761Z,6.89
2016-03-13T11:30:58.717Z,6.79
2016-03-13T11:31:58.689Z,6.9
2016-03-13T11:32:58.661Z,6.87
2016-03-13T11:33:58.633Z,6.91
2016-03-13T11:34:58.588Z,6.68
2016-03-13T11:35:58.575Z,6.62
2016-03-13T11:36:58.531Z,6.48
2016-03-13T11:37:58.503Z,6.65
2016-03-13T11:38:58.474Z,6.38
2016-03-13T11:39:58.445Z,6.35
2016-03-13T11:40:58.433Z,6.35
2016-03-13T11:41:58.388Z,6.26
2016-03-13T11:42:58.391Z,6.35
2016-03-13T11:43:58.206Z,6.4
2016-03-13T11:44:58.302Z,6.4
2016-03-13T11:45:58.274Z,6.5
2016-03-13T11:46:58.245Z,6.54
2016-03-13T11:47:58.232Z,6.72
2016-03-13T11:48:58.188Z,6.66
2016-03-13T11:49:58.175Z,6.62
2016-03-13T11:50:58.115Z,6.47
2016-03-13T11:51:58.102Z,6.56
2016-03-13T11:52:58.059Z,6.72
2016-03-13T11:53:58.061Z,6.76
2016-03-13T11:54:58.001Z,6.9
2016-03-13T11:55:57.973Z,6.94
2016-03-13T11:56:57.787Z,6.89
2016-03-13T11:57:57.915Z,6.89
2016-03-13T11:58:57.887Z,6.76
2016-03-13T11:59:57.858Z,6.77
2016-03-13T12:00:57.815Z,6.79
2016-03-13T12:01:57.787Z,6.77
2016-03-13T12:02:57.757Z,6.73
2016-03-13T12:03:57.745Z,6.87
2016-03-13T12:04:57.701Z,6.84
2016-03-13T12:05:57.672Z,6.86
2016-03-13T12:06:57.690Z,6.8
2016-03-13T12:07:57.614Z,6.76
2016-03-13T12:08:57.602Z,6.76
2016-03-13T12:09:57.541Z,6.63
2016-03-13T12:10:57.544Z,6.68
2016-03-13T12:11:57.485Z,6.72
2016-03-13T12:12:57.472Z,6.68
2016-03-13T12:13:57.428Z,6.65
2016-03-13T12:14:57.399Z,6.59
2016-03-13T12:15:57.371Z,6.71
2016-03-13T12:16:57.357Z,6.81
2016-03-13T12:17:57.297Z,6.77
2016-03-13T12:18:57.316Z,6.83
2016-03-13T12:19:57.241Z,6.91
2016-03-13T12:20:57.243Z,6.91
2016-03-13T12:21:57.183Z,6.9
2016-03-13T12:22:57.155Z,6.89
2016-03-13T12:23:57.127Z,6.99
2016-03-13T12:24:57.082Z,7.01
2016-03-13T12:25:57.085Z,7.04
2016-03-13T12:26:57.025Z,6.98
2016-03-13T12:27:57.028Z,6.89
2016-03-13T12:28:56.968Z,7.02
2016-03-13T12:29:56.939Z,6.91
2016-03-13T12:30:56.927Z,6.95
2016-03-13T12:31:56.882Z,6.95
2016-03-13T12:32:56.854Z,6.94
2016-03-13T12:33:56.826Z,6.99
2016-03-13T12:34:56.797Z,6.97
2016-03-13T12:35:56.628Z,7.08
2016-03-13T12:36:56.739Z,7.09
2016-03-13T12:37:56.695Z,7.23
2016-03-13T12:38:56.683Z,7.16
2016-03-13T12:39:56.653Z,7.15
2016-03-13T12:40:56.609Z,7.12
2016-03-13T12:41:56.597Z,7.08
2016-03-13T12:42:56.569Z,7.07
2016-03-13T12:43:56.524Z,7.08
2016-03-13T12:44:56.495Z,7.05
2016-03-13T12:45:56.467Z,7.15
2016-03-13T12:46:56.282Z,7.09
2016-03-13T12:47:56.410Z,6.99
2016-03-13T12:48:56.380Z,6.99
2016-03-13T12:49:56.369Z,6.99
2016-03-13T12:50:56.308Z,6.97
2016-03-13T12:51:56.279Z,6.97
2016-03-13T12:52:56.252Z,7.07
2016-03-13T12:53:56.223Z,7.19
2016-03-13T12:54:56.194Z,7.15
2016-03-13T12:55:56.166Z,7.09
2016-03-13T12:56:56.137Z,7.19
2016-03-13T12:57:56.109Z,7.17
2016-03-13T12:58:56.111Z,7.07
2016-03-13T12:59:56.051Z,7.16
2016-03-13T13:00:56.007Z,7.17
2016-03-13T13:01:55.979Z,7.16
2016-03-13T13:02:55.966Z,7.13
2016-03-13T13:03:55.937Z,7.12
2016-03-13T13:04:55.893Z,7.13
2016-03-13T13:05:55.864Z,7.19
2016-03-13T13:06:55.836Z,7.24
2016-03-13T13:07:55.807Z,7.26
2016-03-13T13:08:55.794Z,7.34
2016-03-13T13:09:55.738Z,7.34
2016-03-13T13:10:55.710Z,7.35
2016-03-13T13:11:55.682Z,7.37
2016-03-13T13:12:55.668Z,7.34
2016-03-13T13:13:55.624Z,7.38
2016-03-13T13:14:55.596Z,7.4
2016-03-13T13:15:55.567Z,7.47
2016-03-13T13:16:55.538Z,7.55
2016-03-13T13:17:55.509Z,7.56
2016-03-13T13:18:55.513Z,7.56
2016-03-13T13:19:55.453Z,7.56
2016-03-13T13:20:55.408Z,7.55